createdAt,value
2019-05-06T00:01:09.986Z,5.43
2019-05-06T00:03:36.719Z,5.60
2019-05-06T00:06:04.003Z,5.70
2019-05-06T00:08:30.229Z,5.07
2019-05-06T00:10:56.973Z,6.20
2019-05-06T00:13:24.206Z,6.17
2019-05-06T00:15:50.467Z,6.10
2019-05-06T00:18:17.198Z,6.70
2019-05-06T00:20:44.082Z,6.07
2019-05-06T00:23:14.738Z,6.00
2019-05-06T00:26:04.013Z,6.53
2019-05-06T00:28:36.026Z,6.00
2019-05-06T00:31:12.175Z,6.33
2019-05-06T00:33:29.514Z,6.33
2019-05-06T00:35:56.258Z,6.80
2019-05-06T00:38:24.622Z,6.37
2019-05-06T00:40:50.635Z,6.00
2019-05-06T00:43:17.382Z,6.17
2019-05-06T00:45:44.349Z,6.47
2019-05-06T00:48:10.894Z,6.23
2019-05-06T00:50:37.650Z,6.37
2019-05-06T00:53:04.675Z,6.23
2019-05-06T00:55:31.238Z,5.97
2019-05-06T00:57:57.991Z,6.43
2019-05-06T01:00:27.945Z,6.60
2019-05-06T01:02:54.701Z,6.80
2019-05-06T01:05:21.449Z,6.20
2019-05-06T01:07:48.199Z,6.90
2019-05-06T01:10:14.931Z,6.87
2019-05-06T01:12:43.530Z,6.40
2019-05-06T01:15:14.259Z,7.35
2019-05-06T01:17:39.110Z,6.60
2019-05-06T01:20:05.835Z,6.23
2019-05-06T01:22:34.204Z,6.50
2019-05-06T01:24:59.388Z,7.00
2019-05-06T01:27:26.122Z,5.73
2019-05-06T01:29:54.809Z,6.87
2019-05-06T01:32:19.601Z,6.33
2019-05-06T01:34:46.337Z,6.40
2019-05-06T01:37:14.250Z,6.50
2019-05-06T01:39:47.070Z,6.47
2019-05-06T01:42:19.725Z,6.55
2019-05-06T01:44:46.446Z,6.30
2019-05-06T01:47:14.522Z,5.33
2019-05-06T01:49:40.158Z,5.70
2019-05-06T01:52:06.937Z,7.00
2019-05-06T01:54:34.406Z,6.20
2019-05-06T01:57:00.390Z,6.60
2019-05-06T01:59:27.154Z,6.47
2019-05-06T02:02:00.490Z,7.33
2019-05-06T02:04:20.681Z,6.50
2019-05-06T02:06:47.421Z,6.13
2019-05-06T02:09:14.322Z,6.03
2019-05-06T02:11:41.053Z,6.50
2019-05-06T02:14:07.800Z,6.00
2019-05-06T02:16:34.585Z,7.00
2019-05-06T02:19:01.357Z,6.70
2019-05-06T02:21:33.882Z,6.83
2019-05-06T02:24:00.733Z,6.27
2019-05-06T02:26:27.998Z,6.90
2019-05-06T02:28:54.822Z,5.90
2019-05-06T02:31:27.503Z,5.57
2019-05-06T02:34:01.047Z,5.70
2019-05-06T02:36:35.486Z,6.20
2019-05-06T02:39:03.600Z,6.17
2019-05-06T02:41:28.999Z,6.33
2019-05-06T02:43:55.732Z,5.53
2019-05-06T02:46:23.817Z,6.50
2019-05-06T02:49:03.999Z,6.20
2019-05-06T02:51:33.295Z,6.00
2019-05-06T02:53:57.881Z,6.20
2019-05-06T02:56:24.623Z,5.87
2019-05-06T02:58:53.472Z,5.30
2019-05-06T03:01:18.156Z,5.83
2019-05-06T03:03:44.875Z,6.10
2019-05-06T03:06:13.167Z,5.90
2019-05-06T03:08:38.375Z,5.37
2019-05-06T03:11:05.134Z,5.90
2019-05-06T03:13:33.946Z,6.27
2019-05-06T03:15:58.600Z,6.07
2019-05-06T03:18:25.359Z,5.30
2019-05-06T03:20:57.860Z,7.30
2019-05-06T03:23:24.610Z,6.20
2019-05-06T03:25:53.211Z,6.80
2019-05-06T03:28:18.082Z,6.37
2019-05-06T03:30:46.043Z,6.90
2019-05-06T03:33:37.340Z,6.20
2019-05-06T03:35:52.200Z,7.03
2019-05-06T03:38:05.112Z,7.10
2019-05-06T03:40:36.114Z,6.40
2019-05-06T03:42:58.591Z,6.73
2019-05-06T03:45:33.450Z,6.97
2019-05-06T03:48:05.754Z,6.30
2019-05-06T03:50:29.592Z,6.13
2019-05-06T03:52:56.663Z,6.43
2019-05-06T03:55:23.635Z,7.40
2019-05-06T03:57:53.662Z,6.90
2019-05-06T04:00:17.216Z,7.10
2019-05-06T04:02:43.978Z,6.87
2019-05-06T04:05:13.240Z,6.97
2019-05-06T04:07:37.539Z,7.10
2019-05-06T04:10:16.850Z,7.47
2019-05-06T04:12:43.649Z,7.60
2019-05-06T04:15:10.368Z,7.47
2019-05-06T04:17:43.812Z,7.07
2019-05-06T04:20:16.910Z,7.00
2019-05-06T04:22:54.850Z,7.40
2019-05-06T04:25:28.512Z,7.03
2019-05-06T04:27:57.333Z,7.30
2019-05-06T04:30:24.524Z,7.20
2019-05-06T04:32:53.135Z,7.57
2019-05-06T04:35:17.552Z,7.30
2019-05-06T04:37:44.279Z,7.20
2019-05-06T04:40:13.043Z,7.83
2019-05-06T04:42:37.777Z,9.10
2019-05-06T04:45:04.969Z,7.70
2019-05-06T04:47:32.745Z,7.27
2019-05-06T04:49:58.322Z,8.60
2019-05-06T04:52:26.092Z,8.18
2019-05-06T04:54:53.435Z,7.60
2019-05-06T04:57:18.544Z,7.90
2019-05-06T04:59:45.307Z,8.17
2019-05-06T05:02:13.322Z,7.70
2019-05-06T05:04:38.865Z,9.00
2019-05-06T05:07:05.586Z,8.30
2019-05-06T05:09:32.629Z,8.60
2019-05-06T05:12:03.283Z,7.67
2019-05-06T05:14:37.546Z,8.20
2019-05-06T05:17:19.162Z,7.73
2019-05-06T05:19:45.934Z,7.80
2019-05-06T05:22:12.735Z,7.70
2019-05-06T05:24:39.481Z,8.03
2019-05-06T05:27:06.249Z,7.97
2019-05-06T05:29:33.002Z,8.20
2019-05-06T05:31:59.738Z,7.60
2019-05-06T05:34:37.212Z,8.33
2019-05-06T05:36:53.199Z,8.33
2019-05-06T05:39:21.810Z,8.20
2019-05-06T05:41:46.674Z,7.73
2019-05-06T05:44:34.104Z,7.77
2019-05-06T05:47:03.261Z,8.10
2019-05-06T05:49:32.483Z,7.90
2019-05-06T05:51:58.882Z,7.63
2019-05-06T05:54:25.627Z,7.80
2019-05-06T05:56:53.026Z,8.27
2019-05-06T05:59:19.439Z,7.93
2019-05-06T06:01:46.181Z,8.37
2019-05-06T06:04:13.116Z,7.87
2019-05-06T06:06:39.771Z,7.23
2019-05-06T06:09:06.717Z,7.70
2019-05-06T06:11:39.382Z,8.40
2019-05-06T06:14:25.750Z,7.60
2019-05-06T06:17:15.110Z,7.43
2019-05-06T06:19:47.037Z,8.03
2019-05-06T06:22:16.202Z,9.00
2019-05-06T06:24:43.144Z,7.97
2019-05-06T06:27:09.898Z,8.27
2019-05-06T06:29:36.646Z,7.80
2019-05-06T06:32:25.858Z,6.97
2019-05-06T06:35:08.352Z,8.73
2019-05-06T06:37:33.056Z,8.93
2019-05-06T06:39:58.493Z,8.17
2019-05-06T06:42:25.238Z,7.83
2019-05-06T06:44:52.209Z,7.10
2019-05-06T06:47:18.723Z,7.53
2019-05-06T06:49:45.470Z,8.27
2019-05-06T06:52:14.727Z,7.53
2019-05-06T06:54:38.918Z,8.03
2019-05-06T06:57:13.559Z,7.93
2019-05-06T06:59:46.858Z,7.60
2019-05-06T07:02:35.056Z,6.87
2019-05-06T07:05:07.066Z,8.03
2019-05-06T07:07:43.716Z,8.67
2019-05-06T07:10:02.704Z,7.10
2019-05-06T07:12:27.352Z,8.40
2019-05-06T07:14:59.433Z,7.97
2019-05-06T07:17:26.182Z,7.30
2019-05-06T07:19:53.785Z,7.27
2019-05-06T07:22:20.540Z,7.93
2019-05-06T07:24:47.262Z,7.43
2019-05-06T07:27:17.662Z,7.60
2019-05-06T07:29:48.348Z,7.37
2019-05-06T07:32:12.299Z,7.00
2019-05-06T07:34:37.887Z,6.97
2019-05-06T07:37:04.620Z,7.00
2019-05-06T07:39:33.376Z,7.43
2019-05-06T07:41:59.323Z,8.30
2019-05-06T07:44:33.445Z,7.27
2019-05-06T07:47:06.622Z,8.00
2019-05-06T07:49:33.351Z,7.50
2019-05-06T07:52:02.723Z,6.93
2019-05-06T07:54:26.826Z,7.23
2019-05-06T07:56:53.574Z,7.03
2019-05-06T07:59:22.549Z,7.50
2019-05-06T08:01:47.035Z,7.50
2019-05-06T08:04:13.758Z,7.10
2019-05-06T08:06:42.481Z,6.13
2019-05-06T08:09:07.803Z,6.70
2019-05-06T08:11:34.536Z,6.53
2019-05-06T08:14:02.181Z,6.60
2019-05-06T08:16:28.199Z,7.57
2019-05-06T08:18:54.950Z,6.53
2019-05-06T08:21:22.388Z,7.83
2019-05-06T08:23:49.633Z,6.10
2019-05-06T08:26:17.865Z,7.37
2019-05-06T08:28:44.536Z,7.73
2019-05-06T08:31:10.047Z,7.30
2019-05-06T08:33:36.826Z,7.40
2019-05-06T08:36:11.500Z,6.30
2019-05-06T08:38:53.082Z,5.90
2019-05-06T08:41:17.578Z,6.20
2019-05-06T08:43:44.325Z,6.33
2019-05-06T08:46:12.557Z,5.20
2019-05-06T08:48:37.802Z,5.07
2019-05-06T08:51:12.703Z,5.67
2019-05-06T08:53:44.547Z,5.77
2019-05-06T08:56:16.429Z,5.60
2019-05-06T08:58:45.503Z,5.83
2019-05-06T09:01:14.380Z,6.03
2019-05-06T09:03:42.243Z,6.10
2019-05-06T09:06:07.978Z,5.83
2019-05-06T09:08:34.724Z,5.27
2019-05-06T09:11:03.106Z,5.60
2019-05-06T09:13:28.339Z,5.13
2019-05-06T09:15:55.062Z,5.30
2019-05-06T09:18:23.881Z,5.00
2019-05-06T09:20:48.510Z,5.53
2019-05-06T09:23:15.242Z,5.40
2019-05-06T09:25:42.452Z,4.90
2019-05-06T09:28:13.938Z,4.57
2019-05-06T09:30:52.548Z,4.50
2019-05-06T09:33:22.536Z,4.10
2019-05-06T09:35:47.938Z,5.27
2019-05-06T09:38:14.662Z,4.40
2019-05-06T09:40:43.301Z,3.97
2019-05-06T09:43:08.134Z,4.60
2019-05-06T09:45:34.906Z,5.70
2019-05-06T09:48:12.891Z,5.47
2019-05-06T09:50:45.476Z,5.50
2019-05-06T09:53:12.967Z,6.23
2019-05-06T09:55:43.144Z,5.60
2019-05-06T09:58:12.186Z,4.97
2019-05-06T10:00:39.281Z,5.10
2019-05-06T10:03:06.009Z,4.97
2019-05-06T10:05:32.740Z,5.37
2019-05-06T10:07:59.463Z,5.13
2019-05-06T10:10:26.205Z,4.33
2019-05-06T10:12:53.116Z,4.95
2019-05-06T10:15:19.679Z,5.17
2019-05-06T10:17:47.067Z,5.33
2019-05-06T10:20:13.847Z,6.25
2019-05-06T10:22:42.919Z,5.60
2019-05-06T10:25:07.364Z,5.17
2019-05-06T10:27:34.094Z,4.70
2019-05-06T10:30:04.079Z,3.87
2019-05-06T10:32:43.702Z,4.77
2019-05-06T10:35:10.470Z,5.00
2019-05-06T10:37:43.498Z,4.50
2019-05-06T10:40:13.520Z,4.37
2019-05-06T10:42:44.455Z,4.13
2019-05-06T10:45:18.229Z,4.17
2019-05-06T10:47:44.954Z,4.57
2019-05-06T10:50:12.573Z,4.40
2019-05-06T10:52:44.146Z,4.07
2019-05-06T10:55:12.313Z,3.97
2019-05-06T10:57:43.100Z,4.83
2019-05-06T11:00:08.322Z,3.83
2019-05-06T11:02:57.679Z,5.30
2019-05-06T11:05:24.420Z,4.70
2019-05-06T11:07:52.167Z,5.00
2019-05-06T11:10:26.907Z,5.17
2019-05-06T11:12:44.607Z,4.67
2019-05-06T11:15:12.419Z,4.67
2019-05-06T11:17:38.075Z,4.40
2019-05-06T11:20:06.883Z,4.90
2019-05-06T11:22:32.743Z,4.27
2019-05-06T11:24:58.387Z,4.63
2019-05-06T11:27:31.858Z,4.60
2019-05-06T11:29:53.053Z,5.37
2019-05-06T11:32:28.734Z,4.97
2019-05-06T11:35:00.055Z,4.20
2019-05-06T11:37:50.534Z,4.37
2019-05-06T11:40:16.631Z,4.30
2019-05-06T11:42:39.910Z,5.57
2019-05-06T11:45:06.694Z,4.90
2019-05-06T11:47:33.441Z,4.70
2019-05-06T11:50:02.489Z,4.70
2019-05-06T11:52:26.982Z,4.50
2019-05-06T11:54:53.678Z,4.57
2019-05-06T11:57:20.442Z,4.77
2019-05-06T11:59:48.010Z,4.67
2019-05-06T12:02:16.543Z,4.40
2019-05-06T12:04:43.272Z,5.00
2019-05-06T12:07:11.637Z,4.20
2019-05-06T12:09:36.739Z,4.37
2019-05-06T12:12:03.559Z,4.00
2019-05-06T12:14:30.270Z,4.60
2019-05-06T12:16:57.022Z,4.70
2019-05-06T12:19:23.751Z,4.27
2019-05-06T12:21:50.826Z,4.67
2019-05-06T12:24:17.564Z,4.63
2019-05-06T12:26:44.306Z,4.67
2019-05-06T12:29:12.689Z,4.03
2019-05-06T12:31:37.786Z,4.47
2019-05-06T12:34:04.517Z,4.10
2019-05-06T12:36:32.549Z,4.97
2019-05-06T12:39:06.485Z,5.00
2019-05-06T12:41:33.330Z,4.57
2019-05-06T12:43:57.701Z,3.80
2019-05-06T12:46:28.922Z,4.73
2019-05-06T12:48:55.646Z,4.90
2019-05-06T12:51:22.823Z,4.70
2019-05-06T12:53:49.174Z,4.47
2019-05-06T12:56:15.908Z,5.53
2019-05-06T12:58:44.258Z,4.93
2019-05-06T13:01:09.415Z,4.70
2019-05-06T13:03:36.162Z,4.80
2019-05-06T13:06:07.307Z,5.13
2019-05-06T13:08:49.874Z,4.40
2019-05-06T13:10:56.458Z,4.80
2019-05-06T13:13:23.214Z,4.50
2019-05-06T13:15:52.599Z,4.70
2019-05-06T13:18:16.703Z,4.87
2019-05-06T13:20:49.907Z,4.90
2019-05-06T13:23:20.775Z,5.10
2019-05-06T13:25:43.039Z,4.50
2019-05-06T13:28:07.690Z,5.12
2019-05-06T13:30:34.479Z,4.47
2019-05-06T13:33:06.353Z,3.93
2019-05-06T13:35:33.124Z,4.80
2019-05-06T13:37:59.866Z,5.03
2019-05-06T13:40:27.217Z,5.00
2019-05-06T13:43:13.514Z,4.60
2019-05-06T13:45:41.962Z,5.28
2019-05-06T13:48:13.279Z,5.23
2019-05-06T13:50:39.325Z,4.73
2019-05-06T13:53:11.439Z,4.57
2019-05-06T13:55:32.898Z,4.93
2019-05-06T13:57:59.654Z,4.40
2019-05-06T14:00:26.390Z,5.37
2019-05-06T14:02:54.934Z,4.37
2019-05-06T14:05:21.727Z,4.17
2019-05-06T14:07:48.494Z,4.13
2019-05-06T14:10:15.226Z,4.33
2019-05-06T14:12:42.606Z,4.33
2019-05-06T14:15:08.696Z,4.45
2019-05-06T14:17:35.473Z,4.28
2019-05-06T14:20:02.774Z,4.60
2019-05-06T14:22:29.003Z,3.57
2019-05-06T14:25:07.358Z,3.80
2019-05-06T14:27:34.074Z,2.63
2019-05-06T14:30:05.328Z,3.42
2019-05-06T14:32:32.823Z,3.60
2019-05-06T14:34:58.819Z,3.80
2019-05-06T14:37:25.653Z,3.67
2019-05-06T14:39:58.102Z,3.37
2019-05-06T14:42:19.070Z,4.17
2019-05-06T14:44:45.818Z,3.63
2019-05-06T14:47:18.322Z,3.60
2019-05-06T14:49:45.173Z,3.77
2019-05-06T14:52:13.134Z,3.70
2019-05-06T14:54:55.662Z,3.70
2019-05-06T14:57:23.348Z,3.83
2019-05-06T14:59:51.948Z,3.00
2019-05-06T15:02:16.895Z,3.53
2019-05-06T15:04:43.764Z,3.65
2019-05-06T15:07:12.536Z,3.47
2019-05-06T15:09:52.192Z,3.40
2019-05-06T15:12:03.939Z,3.43
2019-05-06T15:14:32.887Z,3.63
2019-05-06T15:16:58.161Z,3.20
2019-05-06T15:19:24.883Z,3.10
2019-05-06T15:21:53.146Z,3.30
2019-05-06T15:24:21.271Z,3.53
2019-05-06T15:26:45.305Z,3.80
2019-05-06T15:29:12.665Z,3.45
2019-05-06T15:31:45.699Z,3.47
2019-05-06T15:34:13.106Z,3.10
2019-05-06T15:36:44.730Z,2.97
2019-05-06T15:39:13.201Z,2.47
2019-05-06T15:41:38.210Z,2.43
2019-05-06T15:44:04.940Z,2.67
2019-05-06T15:46:32.290Z,2.30
2019-05-06T15:48:58.401Z,2.73
2019-05-06T15:51:30.854Z,2.90
2019-05-06T15:53:57.641Z,2.60
2019-05-06T15:56:24.399Z,2.50
2019-05-06T15:58:51.158Z,2.10
2019-05-06T16:01:17.914Z,3.10
2019-05-06T16:03:44.728Z,2.50
2019-05-06T16:06:12.412Z,3.00
2019-05-06T16:08:38.224Z,3.00
2019-05-06T16:11:04.965Z,2.30
2019-05-06T16:13:32.047Z,2.30
2019-05-06T16:15:58.426Z,2.60
2019-05-06T16:18:25.271Z,2.33
2019-05-06T16:20:52.142Z,2.10
2019-05-06T16:23:24.011Z,2.30
2019-05-06T16:25:52.412Z,2.77
2019-05-06T16:28:17.537Z,2.40
2019-05-06T16:30:44.282Z,2.40
2019-05-06T16:33:12.167Z,1.70
2019-05-06T16:35:37.757Z,2.20
2019-05-06T16:38:04.505Z,2.00
2019-05-06T16:40:33.503Z,3.00
2019-05-06T16:42:57.976Z,3.07
2019-05-06T16:45:24.722Z,2.60
2019-05-06T16:47:52.426Z,21.40
2019-05-06T16:50:18.226Z,23.07
2019-05-06T16:52:45.582Z,3.40
2019-05-06T16:55:14.182Z,2.87
2019-05-06T16:57:42.843Z,1.90
2019-05-06T17:00:08.802Z,2.60
2019-05-06T17:02:41.991Z,2.47
2019-05-06T17:05:15.094Z,2.50
2019-05-06T17:07:42.258Z,2.10
2019-05-06T17:10:07.894Z,2.30
2019-05-06T17:12:34.631Z,2.30
2019-05-06T17:15:03.240Z,2.10
2019-05-06T17:17:39.690Z,2.20
2019-05-06T17:19:54.959Z,2.33
2019-05-06T17:22:22.955Z,2.50
2019-05-06T17:24:48.832Z,2.30
2019-05-06T17:27:15.277Z,2.63
2019-05-06T17:29:48.035Z,1.93
2019-05-06T17:32:24.712Z,2.00
2019-05-06T17:34:52.883Z,2.30
2019-05-06T17:37:25.218Z,2.63
2019-05-06T17:40:06.328Z,2.30
2019-05-06T17:42:18.767Z,2.30
2019-05-06T17:44:46.559Z,2.10
2019-05-06T17:47:22.817Z,2.37
2019-05-06T17:49:47.710Z,2.57
2019-05-06T17:52:17.706Z,2.40
2019-05-06T17:54:44.567Z,2.50
2019-05-06T17:57:12.298Z,2.70
2019-05-06T17:59:38.153Z,2.80
2019-05-06T18:02:07.383Z,2.43
2019-05-06T18:04:34.499Z,2.80
2019-05-06T18:07:00.835Z,2.90
2019-05-06T18:09:27.598Z,2.70
2019-05-06T18:11:59.047Z,2.40
2019-05-06T18:14:23.046Z,2.70
2019-05-06T18:16:47.853Z,3.00
2019-05-06T18:19:14.615Z,2.85
2019-05-06T18:21:41.354Z,2.17
2019-05-06T18:24:09.897Z,2.53
2019-05-06T18:26:35.090Z,2.13
2019-05-06T18:29:01.841Z,2.60
2019-05-06T18:31:28.574Z,2.40
2019-05-06T18:33:55.306Z,2.73
2019-05-06T18:36:22.675Z,3.07
2019-05-06T18:38:48.771Z,2.80
2019-05-06T18:41:15.558Z,2.60
2019-05-06T18:43:42.409Z,3.30
2019-05-06T18:46:09.018Z,3.00
2019-05-06T18:48:35.747Z,2.40
2019-05-06T18:51:03.159Z,2.90
2019-05-06T18:53:29.437Z,3.27
2019-05-06T18:55:56.168Z,2.73
2019-05-06T18:58:22.899Z,3.00
2019-05-06T19:00:49.650Z,3.33
2019-05-06T19:03:16.365Z,3.50
2019-05-06T19:05:43.122Z,2.83
2019-05-06T19:08:17.721Z,2.90
2019-05-06T19:10:44.554Z,3.30
2019-05-06T19:13:12.652Z,2.73
2019-05-06T19:15:38.225Z,3.00
2019-05-06T19:18:04.963Z,2.90
2019-05-06T19:20:33.831Z,2.90
2019-05-06T19:22:58.514Z,2.60
2019-05-06T19:25:26.575Z,2.93
2019-05-06T19:27:53.115Z,3.20
2019-05-06T19:30:18.986Z,2.67
2019-05-06T19:32:45.743Z,3.80
2019-05-06T19:35:13.226Z,3.90
2019-05-06T19:37:39.346Z,5.10
2019-05-06T19:40:06.098Z,4.22
2019-05-06T19:42:46.246Z,3.90
2019-05-06T19:44:59.563Z,3.40
2019-05-06T19:47:26.374Z,3.57
2019-05-06T19:49:53.371Z,5.30
2019-05-06T19:52:19.867Z,4.57
2019-05-06T19:54:46.587Z,4.20
2019-05-06T19:57:15.835Z,3.10
2019-05-06T19:59:42.282Z,3.10
2019-05-06T20:02:06.926Z,3.60
2019-05-06T20:04:33.677Z,3.30
2019-05-06T20:07:05.370Z,3.20
2019-05-06T20:09:42.526Z,3.00
2019-05-06T20:12:12.274Z,3.10
2019-05-06T20:14:37.348Z,3.80
2019-05-06T20:17:04.219Z,3.40
2019-05-06T20:19:33.691Z,3.70
2019-05-06T20:21:57.666Z,3.73
2019-05-06T20:24:24.382Z,3.50
2019-05-06T20:26:52.714Z,3.57
2019-05-06T20:29:17.866Z,3.00
2019-05-06T20:31:44.613Z,4.83
2019-05-06T20:34:12.870Z,4.65
2019-05-06T20:36:38.101Z,3.90
2019-05-06T20:39:05.778Z,3.80
2019-05-06T20:41:32.947Z,4.13
2019-05-06T20:43:59.300Z,3.63
2019-05-06T20:46:26.043Z,3.60
2019-05-06T20:48:53.024Z,3.73
2019-05-06T20:51:21.805Z,3.63
2019-05-06T20:53:46.217Z,3.87
2019-05-06T20:56:12.953Z,3.97
2019-05-06T20:58:41.851Z,4.10
2019-05-06T21:01:06.460Z,3.40
2019-05-06T21:03:33.202Z,3.80
2019-05-06T21:06:01.964Z,4.37
2019-05-06T21:08:26.666Z,4.17
2019-05-06T21:10:53.442Z,5.10
2019-05-06T21:13:29.685Z,4.23
2019-05-06T21:15:46.947Z,4.07
2019-05-06T21:18:13.745Z,4.80
2019-05-06T21:20:40.498Z,4.97
2019-05-06T21:23:07.255Z,5.50
2019-05-06T21:25:34.026Z,5.37
2019-05-06T21:28:02.937Z,5.10
2019-05-06T21:30:27.471Z,5.50
2019-05-06T21:32:54.187Z,4.90
2019-05-06T21:35:22.200Z,5.40
2019-05-06T21:37:47.671Z,4.90
2019-05-06T21:40:14.393Z,5.78
2019-05-06T21:42:43.170Z,5.80
2019-05-06T21:45:07.846Z,5.93
2019-05-06T21:47:34.562Z,7.50
2019-05-06T21:50:01.300Z,6.27
2019-05-06T21:52:39.256Z,5.30
2019-05-06T21:54:54.854Z,5.30
2019-05-06T21:57:21.860Z,5.50
2019-05-06T21:59:48.470Z,5.70
2019-05-06T22:02:15.554Z,5.97
2019-05-06T22:04:43.329Z,6.07
2019-05-06T22:07:09.089Z,5.93
2019-05-06T22:09:35.814Z,4.90
2019-05-06T22:12:02.583Z,4.67
2019-05-06T22:14:29.322Z,4.47
2019-05-06T22:16:56.062Z,4.80
2019-05-06T22:19:22.778Z,5.13
2019-05-06T22:21:55.270Z,5.03
2019-05-06T22:24:25.086Z,4.70
2019-05-06T22:26:52.127Z,5.00
2019-05-06T22:29:18.814Z,4.87
2019-05-06T22:31:45.555Z,5.03
2019-05-06T22:34:13.383Z,5.70
2019-05-06T22:36:39.063Z,3.63
2019-05-06T22:39:05.839Z,5.10
2019-05-06T22:41:32.781Z,5.10
2019-05-06T22:44:12.433Z,6.43
2019-05-06T22:46:26.094Z,3.70
2019-05-06T22:48:54.505Z,4.43
2019-05-06T22:51:19.582Z,4.70
2019-05-06T22:53:46.323Z,5.67
2019-05-06T22:56:14.044Z,6.13
2019-05-06T22:58:42.797Z,6.10
2019-05-06T23:01:27.138Z,6.33
2019-05-06T23:03:53.887Z,6.10
2019-05-06T23:06:21.965Z,5.83
2019-05-06T23:08:47.382Z,5.07
2019-05-06T23:11:15.437Z,4.80
2019-05-06T23:13:41.887Z,4.47
2019-05-06T23:16:07.577Z,4.80
2019-05-06T23:18:34.314Z,5.17
2019-05-06T23:21:02.471Z,6.00
2019-05-06T23:23:27.782Z,5.80
2019-05-06T23:26:02.239Z,5.60
2019-05-06T23:28:27.054Z,5.90
2019-05-06T23:30:53.778Z,6.30
2019-05-06T23:33:22.830Z,5.67
2019-05-06T23:35:47.275Z,4.87
2019-05-06T23:38:25.698Z,4.50
2019-05-06T23:41:04.055Z,5.03
2019-05-06T23:43:42.900Z,4.37
2019-05-06T23:46:22.710Z,5.30
2019-05-06T23:48:59.228Z,5.27
2019-05-06T23:51:37.523Z,5.67
2019-05-06T23:54:15.894Z,5.00
2019-05-06T23:56:43.716Z,5.20
2019-05-06T23:59:09.502Z,4.20
